createdAt,value
2017-10-01T00:01:36.351Z,3.53
2017-10-01T00:04:43.076Z,3.60
2017-10-01T00:07:49.826Z,6.13
2017-10-01T00:10:55.396Z,4.47
2017-10-01T00:14:03.090Z,3.30
2017-10-01T00:17:10.935Z,3.57
2017-10-01T00:20:17.461Z,3.53
2017-10-01T00:23:23.087Z,3.93
2017-10-01T00:26:29.506Z,4.23
2017-10-01T00:29:36.367Z,4.17
2017-10-01T00:32:43.955Z,5.50
2017-10-01T00:35:49.694Z,5.37
2017-10-01T00:38:55.481Z,6.20
2017-10-01T00:42:02.214Z,6.20
2017-10-01T00:45:07.746Z,8.07
2017-10-01T00:48:13.500Z,6.37
2017-10-01T00:51:19.177Z,6.20
2017-10-01T00:54:25.773Z,5.20
2017-10-01T00:57:33.429Z,4.60
2017-10-01T01:00:39.075Z,4.80
2017-10-01T01:03:45.967Z,5.57
2017-10-01T01:06:51.746Z,7.23
2017-10-01T01:09:58.499Z,7.00
2017-10-01T01:13:04.194Z,7.67
2017-10-01T01:16:11.812Z,7.60
2017-10-01T01:19:18.544Z,7.30
2017-10-01T01:22:26.015Z,8.37
2017-10-01T01:25:31.495Z,7.87
2017-10-01T01:28:38.122Z,9.40
2017-10-01T01:34:56.382Z,9.40
2017-10-01T01:38:02.766Z,11.03
2017-10-01T01:41:08.440Z,12.27
2017-10-01T01:44:15.019Z,10.77
2017-10-01T01:47:20.729Z,12.20
2017-10-01T01:50:27.595Z,12.80
2017-10-01T01:53:33.270Z,11.00
2017-10-01T01:56:39.858Z,11.17
2017-10-01T01:59:45.726Z,10.13
2017-10-01T02:02:52.395Z,11.97
2017-10-01T02:05:57.917Z,12.23
2017-10-01T02:09:05.778Z,11.13
2017-10-01T02:12:12.387Z,11.00
2017-10-01T02:15:18.099Z,10.30
2017-10-01T02:18:24.800Z,7.53
2017-10-01T02:21:31.449Z,7.33
2017-10-01T02:24:37.031Z,8.00
2017-10-01T02:27:43.691Z,7.73
2017-10-01T02:30:49.191Z,9.27
2017-10-01T02:33:55.941Z,7.07
2017-10-01T02:37:01.660Z,7.40
2017-10-01T02:40:09.125Z,7.97
2017-10-01T02:43:14.849Z,7.83
2017-10-01T02:46:21.486Z,6.97
2017-10-01T02:49:28.166Z,8.33
2017-10-01T02:52:35.038Z,7.63
2017-10-01T02:55:41.814Z,6.00
2017-10-01T02:58:49.539Z,9.80
2017-10-01T03:01:55.366Z,7.60
2017-10-01T03:05:03.089Z,7.53
2017-10-01T03:10:48.230Z,7.60
2017-10-01T03:13:53.882Z,7.67
2017-10-01T03:16:59.637Z,7.53
2017-10-01T03:20:06.315Z,7.80
2017-10-01T03:23:13.275Z,8.13
2017-10-01T03:26:18.808Z,8.60
2017-10-01T03:29:25.750Z,7.93
2017-10-01T03:32:32.417Z,7.97
2017-10-01T03:35:40.093Z,8.40
2017-10-01T03:38:45.779Z,9.50
2017-10-01T03:41:52.463Z,9.30
2017-10-01T03:44:58.208Z,8.73
2017-10-01T03:48:04.910Z,9.40
2017-10-01T03:51:10.924Z,9.10
2017-10-01T03:54:18.445Z,9.63
2017-10-01T03:57:24.268Z,9.93
2017-10-01T04:00:31.105Z,10.60
2017-10-01T04:03:36.768Z,10.87
2017-10-01T04:06:43.478Z,10.47
2017-10-01T04:09:50.246Z,13.00
2017-10-01T04:12:58.020Z,11.60
2017-10-01T04:16:04.824Z,11.80
2017-10-01T04:19:12.398Z,10.60
2017-10-01T04:22:18.321Z,11.40
2017-10-01T04:25:24.814Z,12.23
2017-10-01T04:28:30.363Z,12.23
2017-10-01T04:31:35.991Z,13.87
2017-10-01T04:34:41.591Z,13.17
2017-10-01T04:37:48.343Z,12.07
2017-10-01T04:40:54.150Z,13.03
2017-10-01T04:44:01.825Z,14.77
2017-10-01T04:47:07.534Z,14.77
2017-10-01T04:50:14.281Z,14.23
2017-10-01T04:53:20.986Z,12.37
2017-10-01T04:56:28.966Z,12.40
2017-10-01T04:59:34.994Z,13.43
2017-10-01T05:02:41.605Z,13.53
2017-10-01T05:05:47.374Z,12.73
2017-10-01T05:08:54.086Z,13.70
2017-10-01T05:11:59.745Z,14.10
2017-10-01T05:15:06.498Z,14.27
2017-10-01T05:18:13.308Z,13.57
2017-10-01T05:21:20.916Z,14.73
2017-10-01T05:24:27.512Z,13.23
2017-10-01T05:27:35.367Z,15.47
2017-10-01T05:30:42.200Z,17.60
2017-10-01T05:33:48.743Z,18.30
2017-10-01T05:36:55.214Z,18.27
2017-10-01T05:40:02.180Z,16.80
2017-10-01T05:43:07.977Z,17.90
2017-10-01T05:46:13.979Z,17.77
2017-10-01T05:49:20.505Z,17.60
2017-10-01T05:52:27.247Z,16.30
2017-10-01T05:55:33.888Z,12.57
2017-10-01T05:58:40.761Z,12.90
2017-10-01T06:01:46.357Z,11.50
2017-10-01T06:04:53.930Z,13.90
2017-10-01T06:07:59.649Z,13.70
2017-10-01T06:11:05.245Z,13.63
2017-10-01T06:14:10.959Z,13.73
2017-10-01T06:17:18.531Z,14.37
2017-10-01T06:20:25.201Z,13.13
2017-10-01T06:23:31.038Z,12.40
2017-10-01T06:26:37.738Z,13.30
2017-10-01T06:29:44.630Z,15.67
2017-10-01T06:32:51.205Z,13.50
2017-10-01T06:35:56.934Z,14.47
2017-10-01T06:39:03.543Z,12.73
2017-10-01T06:42:10.006Z,15.10
2017-10-01T06:45:15.894Z,14.80
2017-10-01T06:48:22.659Z,14.77
2017-10-01T06:51:28.414Z,14.13
2017-10-01T06:54:35.161Z,15.00
2017-10-01T06:57:40.701Z,16.90
2017-10-01T07:00:46.330Z,16.67
2017-10-01T07:03:52.134Z,15.83
2017-10-01T07:07:04.790Z,16.67
2017-10-01T07:10:11.587Z,17.20
2017-10-01T07:13:19.235Z,15.60
2017-10-01T07:16:24.953Z,17.40
2017-10-01T07:19:30.887Z,16.33
2017-10-01T07:22:36.754Z,14.93
2017-10-01T07:25:43.571Z,15.30
2017-10-01T07:28:49.196Z,15.47
2017-10-01T07:31:54.918Z,13.67
2017-10-01T07:35:00.699Z,15.57
2017-10-01T07:38:07.360Z,15.70
2017-10-01T07:41:13.020Z,16.30
2017-10-01T07:44:19.689Z,16.17
2017-10-01T07:47:25.395Z,15.97
2017-10-01T07:50:32.344Z,15.60
2017-10-01T07:53:37.853Z,16.50
2017-10-01T07:56:44.577Z,14.77
2017-10-01T07:59:50.436Z,16.63
2017-10-01T08:02:57.078Z,16.53
2017-10-01T08:06:02.842Z,15.10
2017-10-01T08:09:09.353Z,14.20
2017-10-01T08:12:15.143Z,14.80
2017-10-01T08:15:20.798Z,16.00
2017-10-01T08:18:26.355Z,15.43
2017-10-01T08:21:35.088Z,13.80
2017-10-01T08:24:49.991Z,14.97
2017-10-01T08:28:00.125Z,13.80
2017-10-01T08:31:15.122Z,12.87
2017-10-01T08:34:37.947Z,13.37
2017-10-01T08:37:43.561Z,9.20
2017-10-01T08:40:51.221Z,7.93
2017-10-01T08:43:58.096Z,11.80
2017-10-01T08:47:04.806Z,11.03
2017-10-01T08:50:11.518Z,10.63
2017-10-01T08:53:17.262Z,11.43
2017-10-01T09:04:10.848Z,12.40
2017-10-01T09:07:48.639Z,9.67
2017-10-01T09:14:30.431Z,11.40
2017-10-01T09:17:39.907Z,11.30
2017-10-01T09:21:01.303Z,10.07
2017-10-01T09:24:16.969Z,10.03
2017-10-01T09:27:31.480Z,10.07
2017-10-01T09:30:50.012Z,10.33
2017-10-01T09:34:14.661Z,9.60
2017-10-01T09:37:26.010Z,9.93
2017-10-01T09:40:35.784Z,8.60
2017-10-01T09:47:05.899Z,11.00
2017-10-01T09:50:17.828Z,9.90
2017-10-01T09:53:23.280Z,10.07
2017-10-01T09:56:39.143Z,7.77
2017-10-01T09:59:55.997Z,8.23
2017-10-01T10:03:05.081Z,10.37
2017-10-01T10:06:19.646Z,9.60
2017-10-01T10:09:28.156Z,10.90
2017-10-01T10:12:42.474Z,11.43
2017-10-01T10:15:48.257Z,11.83
2017-10-01T10:19:06.950Z,9.80
2017-10-01T10:22:31.389Z,11.67
2017-10-01T10:25:52.830Z,8.73
2017-10-01T10:29:00.522Z,8.63
2017-10-01T10:32:17.292Z,9.10
2017-10-01T10:39:01.498Z,9.60
2017-10-01T10:45:30.888Z,10.50
2017-10-01T10:52:07.006Z,9.93
2017-10-01T10:55:12.933Z,10.40
2017-10-01T11:05:28.951Z,9.80
2017-10-01T11:12:02.372Z,10.87
2017-10-01T11:18:36.752Z,9.53
2017-10-01T11:21:46.177Z,9.67
2017-10-01T11:24:53.079Z,8.43
2017-10-01T11:27:58.622Z,9.90
2017-10-01T11:31:07.182Z,9.53
2017-10-01T11:34:15.890Z,8.50
2017-10-01T11:37:23.658Z,8.53
2017-10-01T11:40:31.223Z,8.40
2017-10-01T11:43:38.921Z,8.37
2017-10-01T11:46:48.595Z,7.73
2017-10-01T11:49:54.217Z,8.60
2017-10-01T11:52:59.912Z,7.60
2017-10-01T11:56:05.620Z,7.87
2017-10-01T11:59:16.304Z,9.73
2017-10-01T12:02:21.930Z,9.70
2017-10-01T12:05:29.517Z,10.80
2017-10-01T12:08:43.161Z,7.37
2017-10-01T12:11:50.921Z,11.40
2017-10-01T12:18:19.005Z,10.47
2017-10-01T12:21:28.701Z,11.27
2017-10-01T12:24:35.325Z,8.40
2017-10-01T12:27:42.960Z,9.37
2017-10-01T12:30:50.616Z,10.47
2017-10-01T12:33:59.397Z,6.50
2017-10-01T12:39:55.885Z,8.40
2017-10-01T12:43:03.841Z,6.90
2017-10-01T12:46:11.516Z,7.50
2017-10-01T12:49:23.402Z,7.53
2017-10-01T12:52:29.808Z,10.43
2017-10-01T12:59:25.850Z,8.93
2017-10-01T13:02:33.656Z,9.93
2017-10-01T13:05:57.787Z,8.50
2017-10-01T13:09:14.781Z,10.80
2017-10-01T13:12:21.201Z,8.20
2017-10-01T13:15:34.838Z,8.10
2017-10-01T13:18:49.160Z,8.97
2017-10-01T13:21:56.062Z,8.40
2017-10-01T13:25:06.852Z,9.90
2017-10-01T13:28:18.841Z,9.93
2017-10-01T13:31:30.518Z,11.20
2017-10-01T13:34:44.273Z,9.07
2017-10-01T13:37:56.898Z,8.30
2017-10-01T13:41:02.710Z,8.03
2017-10-01T13:44:08.261Z,8.00
2017-10-01T13:47:15.205Z,7.40
2017-10-01T13:50:22.040Z,8.53
2017-10-01T13:53:27.722Z,9.17
2017-10-01T13:56:53.505Z,6.93
2017-10-01T13:59:59.283Z,7.47
2017-10-01T14:03:05.933Z,8.33
2017-10-01T14:06:16.575Z,7.90
2017-10-01T14:09:26.431Z,7.03
2017-10-01T14:12:33.045Z,6.77
2017-10-01T14:15:39.666Z,6.63
2017-10-01T14:18:46.682Z,7.77
2017-10-01T14:21:57.258Z,8.00
2017-10-01T14:25:03.972Z,7.90
2017-10-01T14:28:15.498Z,7.57
2017-10-01T14:31:28.279Z,9.80
2017-10-01T14:34:37.859Z,7.70
2017-10-01T14:37:44.837Z,7.03
2017-10-01T14:44:14.611Z,7.53
2017-10-01T14:47:23.385Z,6.97
2017-10-01T14:50:35.041Z,8.03
2017-10-01T14:53:43.924Z,7.83
2017-10-01T14:56:50.523Z,7.43
2017-10-01T15:00:02.344Z,6.90
2017-10-01T15:03:13.992Z,7.60
2017-10-01T15:06:21.684Z,7.87
2017-10-01T15:09:27.284Z,8.10
2017-10-01T15:12:39.363Z,7.67
2017-10-01T15:15:46.128Z,7.00
2017-10-01T15:18:55.693Z,7.23
2017-10-01T15:22:02.234Z,6.20
2017-10-01T15:25:15.996Z,6.90
2017-10-01T15:28:21.645Z,6.90
2017-10-01T15:31:28.050Z,7.17
2017-10-01T15:34:33.376Z,7.00
2017-10-01T15:37:41.048Z,7.10
2017-10-01T15:40:46.669Z,7.27
2017-10-01T15:43:53.210Z,6.93
2017-10-01T15:46:58.831Z,6.73
2017-10-01T15:50:06.395Z,7.53
2017-10-01T15:53:13.121Z,7.63
2017-10-01T15:56:22.938Z,7.40
2017-10-01T15:59:36.467Z,8.10
2017-10-01T16:02:49.054Z,8.50
2017-10-01T16:06:02.897Z,6.90
2017-10-01T16:09:09.509Z,7.43
2017-10-01T16:12:16.242Z,8.07
2017-10-01T16:15:25.702Z,7.03
2017-10-01T16:18:40.478Z,7.07
2017-10-01T16:21:53.112Z,7.00
2017-10-01T16:24:58.901Z,7.20
2017-10-01T16:41:13.470Z,8.83
2017-10-01T16:44:20.655Z,9.97
2017-10-01T16:47:39.239Z,11.10
2017-10-01T16:50:45.832Z,12.70
2017-10-01T16:53:54.692Z,13.90
2017-10-01T16:57:01.124Z,15.70
2017-10-01T17:00:06.857Z,12.60
2017-10-01T17:03:14.382Z,11.30
2017-10-01T17:06:21.245Z,7.73
2017-10-01T17:09:33.781Z,9.13
2017-10-01T17:12:39.537Z,7.73
2017-10-01T17:15:45.110Z,6.60
2017-10-01T17:18:50.834Z,9.07
2017-10-01T17:22:14.084Z,7.80
2017-10-01T17:25:19.678Z,10.03
2017-10-01T17:28:32.561Z,9.97
2017-10-01T17:31:38.134Z,8.40
2017-10-01T17:35:06.895Z,9.57
2017-10-01T17:38:18.279Z,11.70
2017-10-01T17:41:36.676Z,11.20
2017-10-01T17:44:42.276Z,12.63
2017-10-01T17:47:51.078Z,12.03
2017-10-01T17:50:57.693Z,11.60
2017-10-01T17:54:04.267Z,10.57
2017-10-01T17:57:10.926Z,9.40
2017-10-01T18:00:18.539Z,8.30
2017-10-01T18:03:26.320Z,8.57
2017-10-01T18:06:33.924Z,7.57
2017-10-01T18:09:40.762Z,7.90
2017-10-01T18:12:48.462Z,7.67
2017-10-01T18:15:54.182Z,7.20
2017-10-01T18:19:01.058Z,8.30
2017-10-01T18:22:07.611Z,8.10
2017-10-01T18:25:14.253Z,7.60
2017-10-01T18:28:21.343Z,7.33
2017-10-01T18:31:26.882Z,8.43
2017-10-01T18:34:33.341Z,9.60
2017-10-01T18:37:39.507Z,8.20
2017-10-01T18:40:45.998Z,9.87
2017-10-01T18:43:51.205Z,9.13
2017-10-01T18:46:57.089Z,8.37
2017-10-01T18:56:02.429Z,9.10
2017-10-01T18:59:07.861Z,8.30
2017-10-01T19:02:17.612Z,7.97
2017-10-01T19:05:23.322Z,7.97
2017-10-01T19:08:30.148Z,5.47
2017-10-01T19:11:36.848Z,9.27
2017-10-01T19:14:43.558Z,6.40
2017-10-01T19:17:49.331Z,7.23
2017-10-01T19:20:55.934Z,6.93
2017-10-01T19:24:01.842Z,8.57
2017-10-01T19:27:08.514Z,6.50
2017-10-01T19:30:14.953Z,6.43
2017-10-01T19:33:22.085Z,9.03
2017-10-01T19:36:29.963Z,7.23
2017-10-01T19:39:37.544Z,6.87
2017-10-01T19:42:44.069Z,6.53
2017-10-01T19:45:50.867Z,7.70
2017-10-01T19:48:56.526Z,7.30
2017-10-01T19:52:02.230Z,5.70
2017-10-01T19:55:08.035Z,7.20
2017-10-01T20:01:13.323Z,9.13
2017-10-01T20:03:42.539Z,8.20
2017-10-01T20:06:29.248Z,8.53
2017-10-01T20:15:47.995Z,7.67
2017-10-01T20:18:17.993Z,7.47
2017-10-01T20:20:47.867Z,7.47
2017-10-01T20:23:17.529Z,8.57
2017-10-01T20:25:47.497Z,7.60
2017-10-01T20:28:17.511Z,7.20
2017-10-01T20:30:48.777Z,7.30
2017-10-01T20:33:23.020Z,6.83
2017-10-01T20:41:10.951Z,7.53
2017-10-01T20:43:40.109Z,6.90
2017-10-01T20:46:10.552Z,7.77
2017-10-01T20:48:40.416Z,6.87
2017-10-01T20:51:10.662Z,8.53
2017-10-01T20:53:41.241Z,5.90
2017-10-01T20:56:10.283Z,7.13
2017-10-01T20:58:42.388Z,7.83
2017-10-01T21:01:15.050Z,5.80
2017-10-01T21:03:45.974Z,7.87
2017-10-01T21:06:16.464Z,7.40
2017-10-01T21:08:48.835Z,6.63
2017-10-01T21:11:19.786Z,7.50
2017-10-01T21:13:49.517Z,7.93
2017-10-01T21:16:19.158Z,6.93
2017-10-01T21:18:48.791Z,8.73
2017-10-01T21:21:18.636Z,8.67
2017-10-01T21:23:47.985Z,8.13
